sensor_id;sensor_type;location;lat;lon;timestamp;temperature;humidity
73576;DHT22;61859;49.204;8.140;2023-05-23T00:00:41;16.00;99.90
73576;DHT22;61859;49.204;8.140;2023-05-23T00:03:06;16.00;99.90
73576;DHT22;61859;49.204;8.140;2023-05-23T00:05:33;16.00;99.90
73576;DHT22;61859;49.204;8.140;2023-05-23T00:08:00;16.00;99.90
73576;DHT22;61859;49.204;8.140;2023-05-23T00:10:25;16.00;99.90
73576;DHT22;61859;49.204;8.140;2023-05-23T00:12:51;16.00;99.90
73576;DHT22;61859;49.204;8.140;2023-05-23T00:15:17;16.00;99.90
73576;DHT22;61859;49.204;8.140;2023-05-23T00:17:43;15.80;99.90
73576;DHT22;61859;49.204;8.140;2023-05-23T00:20:09;15.80;99.90
73576;DHT22;61859;49.204;8.140;2023-05-23T00:22:36;15.80;99.90
73576;DHT22;61859;49.204;8.140;2023-05-23T00:25:05;15.80;99.90
73576;DHT22;61859;49.204;8.140;2023-05-23T00:27:31;15.70;99.90
73576;DHT22;61859;49.204;8.140;2023-05-23T00:29:56;15.70;99.90
73576;DHT22;61859;49.204;8.140;2023-05-23T00:32:22;15.70;99.90
73576;DHT22;61859;49.204;8.140;2023-05-23T00:34:47;15.70;99.90
73576;DHT22;61859;49.204;8.140;2023-05-23T00:37:13;15.60;99.90
73576;DHT22;61859;49.204;8.140;2023-05-23T00:39:39;15.70;99.90
73576;DHT22;61859;49.204;8.140;2023-05-23T00:42:05;15.60;99.90
73576;DHT22;61859;49.204;8.140;2023-05-23T00:44:30;15.60;99.90
73576;DHT22;61859;49.204;8.140;2023-05-23T00:46:56;15.60;99.90
73576;DHT22;61859;49.204;8.140;2023-05-23T00:49:23;15.50;99.90
73576;DHT22;61859;49.204;8.140;2023-05-23T00:51:49;15.60;99.90
73576;DHT22;61859;49.204;8.140;2023-05-23T00:54:25;15.50;99.90
73576;DHT22;61859;49.204;8.140;2023-05-23T00:56:52;15.60;99.90
73576;DHT22;61859;49.204;8.140;2023-05-23T00:59:18;15.50;99.90
73576;DHT22;61859;49.204;8.140;2023-05-23T01:01:46;15.60;99.90
73576;DHT22;61859;49.204;8.140;2023-05-23T01:04:12;15.50;99.90
73576;DHT22;61859;49.204;8.140;2023-05-23T01:06:38;15.50;99.90
73576;DHT22;61859;49.204;8.140;2023-05-23T01:09:04;15.60;99.90
73576;DHT22;61859;49.204;8.140;2023-05-23T01:14:28;15.50;99.90
73576;DHT22;61859;49.204;8.140;2023-05-23T01:17:13;15.40;99.90
73576;DHT22;61859;49.204;8.140;2023-05-23T01:19:47;15.40;99.90
73576;DHT22;61859;49.204;8.140;2023-05-23T01:22:37;15.40;99.90
73576;DHT22;61859;49.204;8.140;2023-05-23T01:28:07;15.30;99.90
73576;DHT22;61859;49.204;8.140;2023-05-23T01:30:39;15.30;99.90
73576;DHT22;61859;49.204;8.140;2023-05-23T01:33:06;15.30;99.90
73576;DHT22;61859;49.204;8.140;2023-05-23T01:35:32;15.30;99.90
73576;DHT22;61859;49.204;8.140;2023-05-23T01:37:59;15.20;99.90
73576;DHT22;61859;49.204;8.140;2023-05-23T01:40:25;15.20;99.90
73576;DHT22;61859;49.204;8.140;2023-05-23T01:42:52;15.20;99.90
73576;DHT22;61859;49.204;8.140;2023-05-23T01:45:19;15.10;99.90
73576;DHT22;61859;49.204;8.140;2023-05-23T01:47:47;15.20;99.90
73576;DHT22;61859;49.204;8.140;2023-05-23T01:50:14;15.20;99.90
73576;DHT22;61859;49.204;8.140;2023-05-23T01:52:40;15.20;99.90
73576;DHT22;61859;49.204;8.140;2023-05-23T01:55:07;15.20;99.90
73576;DHT22;61859;49.204;8.140;2023-05-23T01:57:35;15.20;99.90
73576;DHT22;61859;49.204;8.140;2023-05-23T02:00:03;15.20;99.90
73576;DHT22;61859;49.204;8.140;2023-05-23T02:02:34;15.20;99.90
73576;DHT22;61859;49.204;8.140;2023-05-23T02:04:59;15.20;99.90
73576;DHT22;61859;49.204;8.140;2023-05-23T02:07:25;15.10;99.90
73576;DHT22;61859;49.204;8.140;2023-05-23T02:09:50;15.10;99.90
73576;DHT22;61859;49.204;8.140;2023-05-23T02:12:16;15.10;99.90
73576;DHT22;61859;49.204;8.140;2023-05-23T02:14:41;15.10;99.90
73576;DHT22;61859;49.204;8.140;2023-05-23T02:17:07;15.20;99.90
73576;DHT22;61859;49.204;8.140;2023-05-23T02:19:36;15.10;99.90
73576;DHT22;61859;49.204;8.140;2023-05-23T02:22:02;15.10;99.90
73576;DHT22;61859;49.204;8.140;2023-05-23T02:24:27;15.10;99.90
73576;DHT22;61859;49.204;8.140;2023-05-23T02:26:54;15.10;99.90
73576;DHT22;61859;49.204;8.140;2023-05-23T02:29:20;15.10;99.90
73576;DHT22;61859;49.204;8.140;2023-05-23T02:31:46;15.00;99.90
73576;DHT22;61859;49.204;8.140;2023-05-23T02:34:11;15.00;99.90
73576;DHT22;61859;49.204;8.140;2023-05-23T02:36:37;14.90;99.90
73576;DHT22;61859;49.204;8.140;2023-05-23T02:39:04;15.00;99.90
73576;DHT22;61859;49.204;8.140;2023-05-23T02:41:30;14.90;99.90
73576;DHT22;61859;49.204;8.140;2023-05-23T02:43:56;14.90;99.90
73576;DHT22;61859;49.204;8.140;2023-05-23T02:46:21;15.00;99.90
73576;DHT22;61859;49.204;8.140;2023-05-23T02:48:47;14.90;99.90
73576;DHT22;61859;49.204;8.140;2023-05-23T02:51:12;14.80;99.90
73576;DHT22;61859;49.204;8.140;2023-05-23T02:53:38;14.90;99.90
73576;DHT22;61859;49.204;8.140;2023-05-23T02:56:04;14.80;99.90
73576;DHT22;61859;49.204;8.140;2023-05-23T02:58:32;14.90;99.90
73576;DHT22;61859;49.204;8.140;2023-05-23T03:01:00;14.80;99.90
73576;DHT22;61859;49.204;8.140;2023-05-23T03:03:52;14.80;99.90
73576;DHT22;61859;49.204;8.140;2023-05-23T03:06:20;14.80;99.90
73576;DHT22;61859;49.204;8.140;2023-05-23T03:08:47;14.80;99.90
73576;DHT22;61859;49.204;8.140;2023-05-23T03:11:12;14.80;99.90
73576;DHT22;61859;49.204;8.140;2023-05-23T03:13:38;14.90;99.90
73576;DHT22;61859;49.204;8.140;2023-05-23T03:16:03;14.80;99.90
73576;DHT22;61859;49.204;8.140;2023-05-23T03:18:29;14.90;99.90
73576;DHT22;61859;49.204;8.140;2023-05-23T03:20:55;14.80;99.90
73576;DHT22;61859;49.204;8.140;2023-05-23T03:23:20;14.80;99.90
73576;DHT22;61859;49.204;8.140;2023-05-23T03:25:46;14.80;99.90
73576;DHT22;61859;49.204;8.140;2023-05-23T03:28:11;14.80;99.90
73576;DHT22;61859;49.204;8.140;2023-05-23T03:30:37;14.90;99.90
73576;DHT22;61859;49.204;8.140;2023-05-23T03:33:03;14.90;99.90
73576;DHT22;61859;49.204;8.140;2023-05-23T03:35:28;14.90;99.90
73576;DHT22;61859;49.204;8.140;2023-05-23T03:37:54;14.80;99.90
73576;DHT22;61859;49.204;8.140;2023-05-23T03:40:20;14.80;99.90
73576;DHT22;61859;49.204;8.140;2023-05-23T03:42:47;14.70;99.90
73576;DHT22;61859;49.204;8.140;2023-05-23T03:45:13;14.80;99.90
73576;DHT22;61859;49.204;8.140;2023-05-23T03:47:38;14.70;99.90
73576;DHT22;61859;49.204;8.140;2023-05-23T03:50:04;14.80;99.90
73576;DHT22;61859;49.204;8.140;2023-05-23T03:52:30;14.70;99.90
73576;DHT22;61859;49.204;8.140;2023-05-23T03:54:56;14.70;99.90
73576;DHT22;61859;49.204;8.140;2023-05-23T03:57:21;14.70;99.90
73576;DHT22;61859;49.204;8.140;2023-05-23T03:59:47;14.70;99.90
73576;DHT22;61859;49.204;8.140;2023-05-23T04:02:12;14.70;99.90
73576;DHT22;61859;49.204;8.140;2023-05-23T04:04:38;14.70;99.90
73576;DHT22;61859;49.204;8.140;2023-05-23T04:07:04;14.70;99.90
73576;DHT22;61859;49.204;8.140;2023-05-23T04:09:30;14.70;99.90
73576;DHT22;61859;49.204;8.140;2023-05-23T04:11:56;14.60;99.90
73576;DHT22;61859;49.204;8.140;2023-05-23T04:14:22;14.70;99.90
73576;DHT22;61859;49.204;8.140;2023-05-23T04:16:48;14.80;99.90
73576;DHT22;61859;49.204;8.140;2023-05-23T04:19:14;14.80;99.90
73576;DHT22;61859;49.204;8.140;2023-05-23T04:21:40;14.80;99.90
73576;DHT22;61859;49.204;8.140;2023-05-23T04:24:06;14.80;99.90
73576;DHT22;61859;49.204;8.140;2023-05-23T04:26:32;14.90;99.90
73576;DHT22;61859;49.204;8.140;2023-05-23T04:28:57;14.90;99.90
73576;DHT22;61859;49.204;8.140;2023-05-23T04:31:23;15.00;99.90
73576;DHT22;61859;49.204;8.140;2023-05-23T04:33:49;15.00;99.90
73576;DHT22;61859;49.204;8.140;2023-05-23T04:36:15;15.00;99.90
73576;DHT22;61859;49.204;8.140;2023-05-23T04:38:40;15.10;99.90
73576;DHT22;61859;49.204;8.140;2023-05-23T04:41:07;15.10;99.90
73576;DHT22;61859;49.204;8.140;2023-05-23T04:43:34;15.20;99.90
73576;DHT22;61859;49.204;8.140;2023-05-23T04:46:02;15.20;99.90
73576;DHT22;61859;49.204;8.140;2023-05-23T04:48:28;15.30;99.90
73576;DHT22;61859;49.204;8.140;2023-05-23T04:50:53;15.30;99.90
73576;DHT22;61859;49.204;8.140;2023-05-23T04:53:20;15.50;99.90
73576;DHT22;61859;49.204;8.140;2023-05-23T04:55:46;15.50;99.90
73576;DHT22;61859;49.204;8.140;2023-05-23T04:58:12;15.60;99.90
73576;DHT22;61859;49.204;8.140;2023-05-23T05:00:37;15.70;99.90
73576;DHT22;61859;49.204;8.140;2023-05-23T05:03:03;15.90;99.90
73576;DHT22;61859;49.204;8.140;2023-05-23T05:05:28;16.00;99.90
73576;DHT22;61859;49.204;8.140;2023-05-23T05:07:54;16.10;99.90
73576;DHT22;61859;49.204;8.140;2023-05-23T05:10:20;16.20;99.90
73576;DHT22;61859;49.204;8.140;2023-05-23T05:12:46;16.30;99.90
73576;DHT22;61859;49.204;8.140;2023-05-23T05:15:15;16.40;99.90
73576;DHT22;61859;49.204;8.140;2023-05-23T05:17:41;16.60;99.90
73576;DHT22;61859;49.204;8.140;2023-05-23T05:20:07;16.70;99.90
73576;DHT22;61859;49.204;8.140;2023-05-23T05:22:35;16.90;99.90
73576;DHT22;61859;49.204;8.140;2023-05-23T05:25:02;16.90;99.90
73576;DHT22;61859;49.204;8.140;2023-05-23T05:27:28;17.00;99.70
73576;DHT22;61859;49.204;8.140;2023-05-23T05:29:53;17.10;99.70
73576;DHT22;61859;49.204;8.140;2023-05-23T05:32:22;17.20;99.30
73576;DHT22;61859;49.204;8.140;2023-05-23T05:34:48;17.40;98.90
73576;DHT22;61859;49.204;8.140;2023-05-23T05:37:15;17.40;98.20
73576;DHT22;61859;49.204;8.140;2023-05-23T05:39:41;17.50;98.00
73576;DHT22;61859;49.204;8.140;2023-05-23T05:42:06;17.50;97.70
73576;DHT22;61859;49.204;8.140;2023-05-23T05:44:32;17.50;96.60
73576;DHT22;61859;49.204;8.140;2023-05-23T05:46:57;17.60;96.40
73576;DHT22;61859;49.204;8.140;2023-05-23T05:49:23;17.70;96.10
73576;DHT22;61859;49.204;8.140;2023-05-23T05:51:48;17.70;94.50
73576;DHT22;61859;49.204;8.140;2023-05-23T05:54:14;17.70;94.00
73576;DHT22;61859;49.204;8.140;2023-05-23T05:56:40;17.80;93.00
73576;DHT22;61859;49.204;8.140;2023-05-23T05:59:06;18.00;93.00
73576;DHT22;61859;49.204;8.140;2023-05-23T06:01:32;18.00;92.30
73576;DHT22;61859;49.204;8.140;2023-05-23T06:03:59;18.20;91.20
73576;DHT22;61859;49.204;8.140;2023-05-23T06:06:25;18.50;91.50
73576;DHT22;61859;49.204;8.140;2023-05-23T06:08:50;18.50;88.00
73576;DHT22;61859;49.204;8.140;2023-05-23T06:11:16;18.60;86.70
73576;DHT22;61859;49.204;8.140;2023-05-23T06:13:42;18.60;87.00
73576;DHT22;61859;49.204;8.140;2023-05-23T06:16:07;18.80;86.00
73576;DHT22;61859;49.204;8.140;2023-05-23T06:18:33;18.80;84.20
73576;DHT22;61859;49.204;8.140;2023-05-23T06:20:59;18.90;83.90
73576;DHT22;61859;49.204;8.140;2023-05-23T06:23:24;19.10;84.10
73576;DHT22;61859;49.204;8.140;2023-05-23T06:25:50;19.20;82.10
73576;DHT22;61859;49.204;8.140;2023-05-23T06:28:16;19.30;82.20
73576;DHT22;61859;49.204;8.140;2023-05-23T06:30:41;19.30;82.30
73576;DHT22;61859;49.204;8.140;2023-05-23T06:33:07;19.40;81.70
73576;DHT22;61859;49.204;8.140;2023-05-23T06:35:32;19.40;80.70
73576;DHT22;61859;49.204;8.140;2023-05-23T06:37:58;19.30;80.30
73576;DHT22;61859;49.204;8.140;2023-05-23T06:40:23;19.20;81.60
73576;DHT22;61859;49.204;8.140;2023-05-23T06:42:49;19.30;81.10
73576;DHT22;61859;49.204;8.140;2023-05-23T06:45:15;19.20;80.90
73576;DHT22;61859;49.204;8.140;2023-05-23T06:47:40;19.00;79.50
73576;DHT22;61859;49.204;8.140;2023-05-23T06:50:08;19.10;81.20
73576;DHT22;61859;49.204;8.140;2023-05-23T06:52:34;19.00;79.50
73576;DHT22;61859;49.204;8.140;2023-05-23T06:54:59;18.90;80.20
73576;DHT22;61859;49.204;8.140;2023-05-23T06:57:25;19.00;81.00
73576;DHT22;61859;49.204;8.140;2023-05-23T06:59:50;18.90;79.70
73576;DHT22;61859;49.204;8.140;2023-05-23T07:02:16;19.00;81.40
73576;DHT22;61859;49.204;8.140;2023-05-23T07:04:41;19.10;79.80
73576;DHT22;61859;49.204;8.140;2023-05-23T07:07:07;19.20;78.90
73576;DHT22;61859;49.204;8.140;2023-05-23T07:09:32;19.30;78.30
73576;DHT22;61859;49.204;8.140;2023-05-23T07:11:58;19.30;78.40
73576;DHT22;61859;49.204;8.140;2023-05-23T07:14:23;19.40;78.50
73576;DHT22;61859;49.204;8.140;2023-05-23T07:16:49;19.40;78.70
73576;DHT22;61859;49.204;8.140;2023-05-23T07:19:14;19.30;77.90
73576;DHT22;61859;49.204;8.140;2023-05-23T07:21:40;19.30;78.10
73576;DHT22;61859;49.204;8.140;2023-05-23T07:24:05;19.20;78.90
73576;DHT22;61859;49.204;8.140;2023-05-23T07:26:31;19.20;79.10
73576;DHT22;61859;49.204;8.140;2023-05-23T07:28:57;19.30;78.70
73576;DHT22;61859;49.204;8.140;2023-05-23T07:31:23;19.20;79.60
73576;DHT22;61859;49.204;8.140;2023-05-23T07:33:48;19.30;78.20
73576;DHT22;61859;49.204;8.140;2023-05-23T07:36:14;19.30;78.40
73576;DHT22;61859;49.204;8.140;2023-05-23T07:38:40;19.30;77.40
73576;DHT22;61859;49.204;8.140;2023-05-23T07:41:06;19.30;76.60
73576;DHT22;61859;49.204;8.140;2023-05-23T07:43:31;19.20;78.10
73576;DHT22;61859;49.204;8.140;2023-05-23T07:45:57;19.20;76.50
73576;DHT22;61859;49.204;8.140;2023-05-23T07:48:22;19.10;76.30
73576;DHT22;61859;49.204;8.140;2023-05-23T07:50:48;18.80;75.60
73576;DHT22;61859;49.204;8.140;2023-05-23T07:53:14;18.80;76.90
73576;DHT22;61859;49.204;8.140;2023-05-23T07:55:40;18.80;78.30
73576;DHT22;61859;49.204;8.140;2023-05-23T07:58:05;18.90;78.90
73576;DHT22;61859;49.204;8.140;2023-05-23T08:00:31;18.70;77.00
73576;DHT22;61859;49.204;8.140;2023-05-23T08:02:57;18.70;77.30
73576;DHT22;61859;49.204;8.140;2023-05-23T08:05:22;18.70;77.90
73576;DHT22;61859;49.204;8.140;2023-05-23T08:07:48;18.80;76.50
73576;DHT22;61859;49.204;8.140;2023-05-23T08:10:14;18.70;76.30
73576;DHT22;61859;49.204;8.140;2023-05-23T08:12:39;18.70;75.80
73576;DHT22;61859;49.204;8.140;2023-05-23T08:15:05;18.80;76.70
73576;DHT22;61859;49.204;8.140;2023-05-23T08:17:31;18.90;76.00
73576;DHT22;61859;49.204;8.140;2023-05-23T08:19:56;18.70;75.50
73576;DHT22;61859;49.204;8.140;2023-05-23T08:22:22;18.70;75.50
73576;DHT22;61859;49.204;8.140;2023-05-23T08:24:48;18.60;75.10
73576;DHT22;61859;49.204;8.140;2023-05-23T08:27:13;18.60;75.70
73576;DHT22;61859;49.204;8.140;2023-05-23T08:29:39;18.60;76.70
73576;DHT22;61859;49.204;8.140;2023-05-23T08:32:05;18.60;75.30
73576;DHT22;61859;49.204;8.140;2023-05-23T08:34:30;18.80;74.60
73576;DHT22;61859;49.204;8.140;2023-05-23T08:36:57;19.00;74.50
73576;DHT22;61859;49.204;8.140;2023-05-23T08:39:22;19.20;74.90
73576;DHT22;61859;49.204;8.140;2023-05-23T08:41:48;19.40;71.70
73576;DHT22;61859;49.204;8.140;2023-05-23T08:44:14;19.50;71.70
73576;DHT22;61859;49.204;8.140;2023-05-23T08:46:46;19.70;69.80
73576;DHT22;61859;49.204;8.140;2023-05-23T08:49:16;19.70;69.50
73576;DHT22;61859;49.204;8.140;2023-05-23T08:51:42;19.70;71.00
73576;DHT22;61859;49.204;8.140;2023-05-23T08:54:09;19.70;70.80
73576;DHT22;61859;49.204;8.140;2023-05-23T08:56:37;19.80;70.50
73576;DHT22;61859;49.204;8.140;2023-05-23T08:59:03;19.90;71.40
73576;DHT22;61859;49.204;8.140;2023-05-23T09:01:31;19.90;71.10
73576;DHT22;61859;49.204;8.140;2023-05-23T09:03:58;19.90;69.80
73576;DHT22;61859;49.204;8.140;2023-05-23T09:06:29;20.00;70.10
73576;DHT22;61859;49.204;8.140;2023-05-23T09:08:55;20.10;67.90
73576;DHT22;61859;49.204;8.140;2023-05-23T09:11:21;20.30;67.40
73576;DHT22;61859;49.204;8.140;2023-05-23T09:13:47;20.30;68.10
73576;DHT22;61859;49.204;8.140;2023-05-23T09:16:15;20.30;68.50
73576;DHT22;61859;49.204;8.140;2023-05-23T09:18:43;20.30;66.70
73576;DHT22;61859;49.204;8.140;2023-05-23T09:21:10;20.20;67.50
73576;DHT22;61859;49.204;8.140;2023-05-23T09:23:37;20.20;68.90
73576;DHT22;61859;49.204;8.140;2023-05-23T09:26:07;20.10;67.20
73576;DHT22;61859;49.204;8.140;2023-05-23T09:28:34;20.10;69.20
73576;DHT22;61859;49.204;8.140;2023-05-23T09:31:04;20.40;68.50
73576;DHT22;61859;49.204;8.140;2023-05-23T09:33:46;20.70;66.70
73576;DHT22;61859;49.204;8.140;2023-05-23T09:36:12;21.20;65.60
73576;DHT22;61859;49.204;8.140;2023-05-23T09:38:39;21.90;63.60
73576;DHT22;61859;49.204;8.140;2023-05-23T09:41:06;22.50;62.40
73576;DHT22;61859;49.204;8.140;2023-05-23T09:43:31;23.10;58.50
73576;DHT22;61859;49.204;8.140;2023-05-23T09:46:07;23.50;58.90
73576;DHT22;61859;49.204;8.140;2023-05-23T09:48:33;24.00;56.50
73576;DHT22;61859;49.204;8.140;2023-05-23T09:50:58;24.20;56.30
73576;DHT22;61859;49.204;8.140;2023-05-23T09:53:28;24.00;55.90
73576;DHT22;61859;49.204;8.140;2023-05-23T09:55:54;23.80;56.10
73576;DHT22;61859;49.204;8.140;2023-05-23T09:58:22;23.50;55.00
73576;DHT22;61859;49.204;8.140;2023-05-23T10:00:52;23.30;56.40
73576;DHT22;61859;49.204;8.140;2023-05-23T10:03:26;23.10;58.00
73576;DHT22;61859;49.204;8.140;2023-05-23T10:05:56;22.90;57.70
73576;DHT22;61859;49.204;8.140;2023-05-23T10:08:35;23.20;58.20
73576;DHT22;61859;49.204;8.140;2023-05-23T10:13:47;23.10;58.40
73576;DHT22;61859;49.204;8.140;2023-05-23T10:19:22;24.00;59.90
73576;DHT22;61859;49.204;8.140;2023-05-23T10:21:51;24.90;56.40
73576;DHT22;61859;49.204;8.140;2023-05-23T10:24:20;25.30;52.40
73576;DHT22;61859;49.204;8.140;2023-05-23T10:26:47;25.10;52.20
73576;DHT22;61859;49.204;8.140;2023-05-23T10:29:13;24.90;53.40
73576;DHT22;61859;49.204;8.140;2023-05-23T10:31:39;24.50;54.30
73576;DHT22;61859;49.204;8.140;2023-05-23T10:37:06;23.90;53.30
73576;DHT22;61859;49.204;8.140;2023-05-23T10:42:22;23.60;56.40
73576;DHT22;61859;49.204;8.140;2023-05-23T10:44:51;23.60;55.40
73576;DHT22;61859;49.204;8.140;2023-05-23T10:47:25;23.50;55.70
73576;DHT22;61859;49.204;8.140;2023-05-23T10:49:52;23.20;55.50
73576;DHT22;61859;49.204;8.140;2023-05-23T10:52:19;22.90;58.50
73576;DHT22;61859;49.204;8.140;2023-05-23T10:54:47;22.40;59.40
73576;DHT22;61859;49.204;8.140;2023-05-23T10:57:19;22.10;60.00
73576;DHT22;61859;49.204;8.140;2023-05-23T10:59:45;21.90;60.50
73576;DHT22;61859;49.204;8.140;2023-05-23T11:02:14;21.80;60.80
73576;DHT22;61859;49.204;8.140;2023-05-23T11:04:40;21.70;61.40
73576;DHT22;61859;49.204;8.140;2023-05-23T11:07:30;21.60;60.60
73576;DHT22;61859;49.204;8.140;2023-05-23T11:10:12;21.70;59.90
73576;DHT22;61859;49.204;8.140;2023-05-23T11:12:44;21.80;61.50
73576;DHT22;61859;49.204;8.140;2023-05-23T11:17:53;22.60;58.90
73576;DHT22;61859;49.204;8.140;2023-05-23T11:20:20;23.00;56.90
73576;DHT22;61859;49.204;8.140;2023-05-23T11:23:01;23.20;57.70
73576;DHT22;61859;49.204;8.140;2023-05-23T11:25:50;23.50;55.30
73576;DHT22;61859;49.204;8.140;2023-05-23T11:28:16;23.50;57.30
73576;DHT22;61859;49.204;8.140;2023-05-23T11:30:42;23.50;56.10
73576;DHT22;61859;49.204;8.140;2023-05-23T11:33:12;23.30;56.60
73576;DHT22;61859;49.204;8.140;2023-05-23T11:35:45;23.20;55.90
73576;DHT22;61859;49.204;8.140;2023-05-23T11:38:11;22.80;57.90
73576;DHT22;61859;49.204;8.140;2023-05-23T11:40:39;22.60;58.10
73576;DHT22;61859;49.204;8.140;2023-05-23T11:43:07;22.50;58.30
73576;DHT22;61859;49.204;8.140;2023-05-23T11:45:35;22.50;57.90
73576;DHT22;61859;49.204;8.140;2023-05-23T11:48:11;22.60;58.20
73576;DHT22;61859;49.204;8.140;2023-05-23T11:50:49;22.80;60.00
73576;DHT22;61859;49.204;8.140;2023-05-23T11:53:16;23.00;58.70
73576;DHT22;61859;49.204;8.140;2023-05-23T11:55:55;23.10;60.30
73576;DHT22;61859;49.204;8.140;2023-05-23T11:58:35;23.40;58.40
73576;DHT22;61859;49.204;8.140;2023-05-23T12:01:04;23.70;58.20
73576;DHT22;61859;49.204;8.140;2023-05-23T12:03:31;24.20;55.70
73576;DHT22;61859;49.204;8.140;2023-05-23T12:05:57;24.50;55.00
73576;DHT22;61859;49.204;8.140;2023-05-23T12:08:23;24.80;54.80
73576;DHT22;61859;49.204;8.140;2023-05-23T12:10:56;24.80;54.00
73576;DHT22;61859;49.204;8.140;2023-05-23T12:13:27;24.80;52.70
73576;DHT22;61859;49.204;8.140;2023-05-23T12:16:00;24.80;53.50
73576;DHT22;61859;49.204;8.140;2023-05-23T12:18:32;24.90;53.80
73576;DHT22;61859;49.204;8.140;2023-05-23T12:21:01;25.10;52.00
73576;DHT22;61859;49.204;8.140;2023-05-23T12:23:27;25.40;52.00
73576;DHT22;61859;49.204;8.140;2023-05-23T12:25:55;25.70;52.20
73576;DHT22;61859;49.204;8.140;2023-05-23T12:28:32;26.20;49.60
73576;DHT22;61859;49.204;8.140;2023-05-23T12:30:58;26.30;49.70
73576;DHT22;61859;49.204;8.140;2023-05-23T12:33:24;26.70;48.80
73576;DHT22;61859;49.204;8.140;2023-05-23T12:35:50;27.40;47.90
73576;DHT22;61859;49.204;8.140;2023-05-23T12:38:16;28.00;45.90
73576;DHT22;61859;49.204;8.140;2023-05-23T12:40:42;28.20;45.40
73576;DHT22;61859;49.204;8.140;2023-05-23T12:43:08;28.40;47.60
73576;DHT22;61859;49.204;8.140;2023-05-23T12:45:35;28.60;46.60
73576;DHT22;61859;49.204;8.140;2023-05-23T12:48:04;29.20;45.80
73576;DHT22;61859;49.204;8.140;2023-05-23T12:50:30;29.00;43.20
73576;DHT22;61859;49.204;8.140;2023-05-23T12:52:56;28.60;43.40
73576;DHT22;61859;49.204;8.140;2023-05-23T12:55:21;28.10;43.90
73576;DHT22;61859;49.204;8.140;2023-05-23T12:57:47;27.80;45.60
73576;DHT22;61859;49.204;8.140;2023-05-23T13:00:13;27.40;45.10
73576;DHT22;61859;49.204;8.140;2023-05-23T13:02:39;26.80;45.80
73576;DHT22;61859;49.204;8.140;2023-05-23T13:05:05;26.00;46.90
73576;DHT22;61859;49.204;8.140;2023-05-23T13:07:30;25.40;50.80
73576;DHT22;61859;49.204;8.140;2023-05-23T13:09:56;24.70;50.70
73576;DHT22;61859;49.204;8.140;2023-05-23T13:12:22;24.30;52.10
73576;DHT22;61859;49.204;8.140;2023-05-23T13:14:48;24.00;53.10
73576;DHT22;61859;49.204;8.140;2023-05-23T13:17:14;23.90;54.20
73576;DHT22;61859;49.204;8.140;2023-05-23T13:19:40;24.00;53.50
73576;DHT22;61859;49.204;8.140;2023-05-23T13:22:05;24.10;53.20
73576;DHT22;61859;49.204;8.140;2023-05-23T13:24:35;24.50;52.70
73576;DHT22;61859;49.204;8.140;2023-05-23T13:27:02;25.30;52.60
73576;DHT22;61859;49.204;8.140;2023-05-23T13:29:27;26.90;49.00
73576;DHT22;61859;49.204;8.140;2023-05-23T13:31:53;28.20;45.40
73576;DHT22;61859;49.204;8.140;2023-05-23T13:34:18;29.10;45.50
73576;DHT22;61859;49.204;8.140;2023-05-23T13:36:44;30.20;43.80
73576;DHT22;61859;49.204;8.140;2023-05-23T13:39:09;31.50;42.30
73576;DHT22;61859;49.204;8.140;2023-05-23T13:41:35;32.20;41.00
73576;DHT22;61859;49.204;8.140;2023-05-23T13:44:01;32.90;40.30
73576;DHT22;61859;49.204;8.140;2023-05-23T13:46:26;33.50;38.70
73576;DHT22;61859;49.204;8.140;2023-05-23T13:48:52;34.10;38.00
73576;DHT22;61859;49.204;8.140;2023-05-23T13:51:17;33.40;37.40
73576;DHT22;61859;49.204;8.140;2023-05-23T13:53:43;32.20;39.30
73576;DHT22;61859;49.204;8.140;2023-05-23T13:56:09;30.90;40.20
73576;DHT22;61859;49.204;8.140;2023-05-23T13:58:35;29.90;40.60
73576;DHT22;61859;49.204;8.140;2023-05-23T14:01:00;28.70;43.00
73576;DHT22;61859;49.204;8.140;2023-05-23T14:03:27;27.80;45.00
73576;DHT22;61859;49.204;8.140;2023-05-23T14:05:52;26.90;46.60
73576;DHT22;61859;49.204;8.140;2023-05-23T14:08:18;26.30;46.70
73576;DHT22;61859;49.204;8.140;2023-05-23T14:10:44;25.90;47.90
73576;DHT22;61859;49.204;8.140;2023-05-23T14:13:09;25.90;49.60
73576;DHT22;61859;49.204;8.140;2023-05-23T14:15:36;26.10;48.90
73576;DHT22;61859;49.204;8.140;2023-05-23T14:18:02;26.50;47.50
73576;DHT22;61859;49.204;8.140;2023-05-23T14:20:28;26.70;47.90
73576;DHT22;61859;49.204;8.140;2023-05-23T14:22:54;26.80;45.50
73576;DHT22;61859;49.204;8.140;2023-05-23T14:25:20;26.90;47.30
73576;DHT22;61859;49.204;8.140;2023-05-23T14:27:45;26.90;45.80
73576;DHT22;61859;49.204;8.140;2023-05-23T14:30:11;26.70;46.70
73576;DHT22;61859;49.204;8.140;2023-05-23T14:32:37;26.40;47.20
73576;DHT22;61859;49.204;8.140;2023-05-23T14:35:08;26.00;47.40
73576;DHT22;61859;49.204;8.140;2023-05-23T14:37:34;25.20;47.30
73576;DHT22;61859;49.204;8.140;2023-05-23T14:40:00;24.60;50.40
73576;DHT22;61859;49.204;8.140;2023-05-23T14:42:25;24.30;51.50
73576;DHT22;61859;49.204;8.140;2023-05-23T14:44:52;24.10;53.20
73576;DHT22;61859;49.204;8.140;2023-05-23T14:47:18;24.00;52.60
73576;DHT22;61859;49.204;8.140;2023-05-23T14:49:44;24.50;53.10
73576;DHT22;61859;49.204;8.140;2023-05-23T14:52:09;24.90;49.80
73576;DHT22;61859;49.204;8.140;2023-05-23T14:54:37;24.60;51.60
73576;DHT22;61859;49.204;8.140;2023-05-23T14:57:05;24.20;51.40
73576;DHT22;61859;49.204;8.140;2023-05-23T14:59:30;23.90;54.10
73576;DHT22;61859;49.204;8.140;2023-05-23T15:01:56;23.50;54.20
73576;DHT22;61859;49.204;8.140;2023-05-23T15:04:22;23.30;55.50
73576;DHT22;61859;49.204;8.140;2023-05-23T15:06:48;23.00;55.20
73576;DHT22;61859;49.204;8.140;2023-05-23T15:09:15;22.80;55.10
73576;DHT22;61859;49.204;8.140;2023-05-23T15:11:44;22.90;55.30
73576;DHT22;61859;49.204;8.140;2023-05-23T15:14:11;22.90;55.20
73576;DHT22;61859;49.204;8.140;2023-05-23T15:16:36;23.00;54.80
73576;DHT22;61859;49.204;8.140;2023-05-23T15:19:03;22.90;55.20
73576;DHT22;61859;49.204;8.140;2023-05-23T15:21:29;22.90;55.30
73576;DHT22;61859;49.204;8.140;2023-05-23T15:23:54;23.10;55.40
73576;DHT22;61859;49.204;8.140;2023-05-23T15:26:20;23.30;54.60
73576;DHT22;61859;49.204;8.140;2023-05-23T15:28:46;23.70;54.90
73576;DHT22;61859;49.204;8.140;2023-05-23T15:31:12;24.10;53.10
73576;DHT22;61859;49.204;8.140;2023-05-23T15:33:38;24.30;52.50
73576;DHT22;61859;49.204;8.140;2023-05-23T15:36:03;24.40;52.50
73576;DHT22;61859;49.204;8.140;2023-05-23T15:38:29;24.20;51.60
73576;DHT22;61859;49.204;8.140;2023-05-23T15:40:54;24.20;53.70
73576;DHT22;61859;49.204;8.140;2023-05-23T15:43:21;24.60;52.30
73576;DHT22;61859;49.204;8.140;2023-05-23T15:45:49;25.10;52.00
73576;DHT22;61859;49.204;8.140;2023-05-23T15:48:15;25.30;49.10